Terminal Aerodrome Forecast
Issued by NWS

Home | Current Version | Previous Version | Text Only | Print | Product List | Glossary On
Versions: 1 2 3 4 5 6 7 8 9 10 11 12 13 14 15 16 17 18 19 20 21 22 23
297
FTUS46 KMFR 210528
TAFOTH
TAF
KOTH 210528Z 2106/2206 12004KT P6SM -RA SCT025 OVC035
     FM211000 23008KT 5SM RA BR OVC020
     FM211400 24015G25KT 3SM RA BR OVC015
     FM212100 32008KT P6SM -SHRA SCT020 BKN040
     FM220100 13004KT P6SM BKN060=

USA.gov is the U.S. government's official web portal to all federal, state and local government web resources and services.